Time;durP1;ratioP1;P1;durP2;ratioP2;P2;SDS_P1;SDS_P2;PMS_P1;PMS_P2;Temp;Humidity;BMP_temperature;BMP_pressure;BME280_temperature;BME280_humidity;BME280_pressure;Samples;Min_cycle;Max_cycle;Signal;HPM_P1;HPM_P2
2022/12/12 00:00:00;;;;;;;;;;;;;;;0.82;70.26;97641.53;7384878;19;19947;-71
2022/12/12 00:02:27;;;;;;;;;;;;;;;0.79;70.39;97653.00;7386888;19;19926;-71
2022/12/12 00:04:57;;;;;;;;;;;;;;;0.85;69.79;97649.13;7381801;19;19982;-71
2022/12/12 00:07:23;;;;;;;;;;;;;;;0.85;70.59;97649.13;7382573;19;20261;-71
2022/12/12 00:09:50;;;;;;;;;;;;;;;0.87;70.73;97650.66;7389926;19;19923;-71
2022/12/12 00:12:16;;;;;;;;;;;;;;;0.84;70.66;97647.44;7389006;19;19926;-71
2022/12/12 00:14:43;;;;;;;;;;;;;;;0.71;71.67;97655.34;7387333;19;19943;-71
2022/12/12 00:17:09;;;;;;;;;;;;;;;0.81;71.37;97650.28;7389520;19;19934;-71
2022/12/12 00:19:36;;;;;;;;;;;;;;;0.69;71.99;97649.41;7388355;19;19926;-71
2022/12/12 00:22:02;;;;;;;;;;;;;;;0.69;71.91;97652.00;7384791;19;19915;-71
2022/12/12 00:24:29;;;;;;;;;;;;;;;0.76;71.02;97649.78;7389939;19;19994;-71
2022/12/12 00:26:58;;;;;;;;;;;;;;;0.67;71.26;97648.69;7389296;19;19914;-71
2022/12/12 00:29:24;;;;;;;;;;;;;;;0.72;70.84;97649.19;7387439;19;20245;-71
2022/12/12 00:31:51;;;;;;;;;;;;;;;0.81;70.71;97651.09;7387451;19;19915;-72
2022/12/12 00:34:17;;;;;;;;;;;;;;;0.74;70.37;97652.50;7390273;19;19939;-71
2022/12/12 00:36:44;;;;;;;;;;;;;;;0.70;70.45;97653.66;7388705;19;19915;-71
2022/12/12 00:39:11;;;;;;;;;;;;;;;0.73;70.01;97658.63;7385924;19;20218;-71
2022/12/12 00:41:43;;;;;;;;;;;;;;;0.51;71.23;97653.34;7389141;19;19926;-71
2022/12/12 00:44:10;;;;;;;;;;;;;;;0.63;70.68;97660.25;7388059;19;20466;-71
2022/12/12 00:46:38;;;;;;;;;;;;;;;0.60;70.20;97652.66;7387610;19;19986;-71
2022/12/12 00:49:04;;;;;;;;;;;;;;;0.64;70.10;97654.13;7390478;19;20373;-71
2022/12/12 00:51:31;;;;;;;;;;;;;;;0.58;69.94;97657.16;7386620;19;20275;-71
2022/12/12 00:53:57;;;;;;;;;;;;;;;0.63;69.75;97652.44;7384424;19;19925;-71
2022/12/12 00:56:24;;;;;;;;;;;;;;;0.65;69.72;97651.38;7379042;19;20629;-71
2022/12/12 00:58:51;;;;;;;;;;;;;;;0.61;69.73;97655.16;7390926;19;19945;-71
2022/12/12 01:01:19;;;;;;;;;;;;;;;0.59;70.02;97653.63;7387481;19;19922;-71
2022/12/12 01:03:46;;;;;;;;;;;;;;;0.51;70.55;97654.16;7390211;19;19918;-71
2022/12/12 01:06:12;;;;;;;;;;;;;;;0.49;70.73;97652.63;7389622;19;19918;-71
2022/12/12 01:08:39;;;;;;;;;;;;;;;0.55;71.10;97649.56;7390836;19;20395;-71
2022/12/12 01:11:06;;;;;;;;;;;;;;;0.49;70.84;97650.03;7383104;19;19927;-71
2022/12/12 01:13:33;;;;;;;;;;;;;;;0.35;72.29;97644.03;7383174;19;19930;-71
2022/12/12 01:16:00;;;;;;;;;;;;;;;0.46;71.26;97655.44;7386346;19;20320;-71
2022/12/12 01:18:26;;;;;;;;;;;;;;;0.44;72.11;97652.94;7389361;19;19923;-71
2022/12/12 01:20:53;;;;;;;;;;;;;;;0.43;71.90;97646.91;7386393;19;19935;-71
2022/12/12 01:23:19;;;;;;;;;;;;;;;0.37;72.38;97647.38;7386786;19;19926;-71
2022/12/12 01:25:46;;;;;;;;;;;;;;;0.26;72.68;97652.47;7386672;19;19922;-71
2022/12/12 01:28:13;;;;;;;;;;;;;;;0.28;72.94;97653.22;7385215;19;19947;-71
2022/12/12 01:30:40;;;;;;;;;;;;;;;0.35;72.60;97658.81;7382934;19;19925;-71
2022/12/12 01:33:06;;;;;;;;;;;;;;;0.48;72.24;97654.41;7387312;19;19923;-71
2022/12/12 01:35:33;;;;;;;;;;;;;;;0.34;72.79;97657.13;7386256;19;19934;-71
2022/12/12 01:37:59;;;;;;;;;;;;;;;0.39;72.81;97662.84;7392150;19;20372;-70
2022/12/12 01:40:27;;;;;;;;;;;;;;;0.37;72.46;97662.97;7386910;19;19918;-71
2022/12/12 01:42:54;;;;;;;;;;;;;;;0.32;72.75;97661.66;7386123;19;19919;-71
2022/12/12 01:45:39;;;;;;;;;;;;;;;0.30;72.50;97661.75;7384435;19;19939;-70
2022/12/12 01:48:06;;;;;;;;;;;;;;;0.19;72.62;97672.09;7388126;19;20485;-71
2022/12/12 01:50:32;;;;;;;;;;;;;;;0.17;72.99;97666.97;7387164;19;19962;-71
2022/12/12 01:52:59;;;;;;;;;;;;;;;0.15;73.20;97665.41;7388277;19;19927;-70
2022/12/12 01:55:25;;;;;;;;;;;;;;;0.16;73.05;97674.91;7386913;19;19918;-71
2022/12/12 01:57:52;;;;;;;;;;;;;;;0.29;72.69;97665.28;7389064;19;19922;-70
2022/12/12 02:00:19;;;;;;;;;;;;;;;0.21;72.33;97671.03;7385499;19;19926;-71
2022/12/12 02:02:46;;;;;;;;;;;;;;;0.11;72.47;97671.78;7381369;19;19931;-71
2022/12/12 02:05:22;;;;;;;;;;;;;;;0.03;72.52;97672.31;7383007;19;19926;-71
2022/12/12 02:07:48;;;;;;;;;;;;;;;0.00;72.31;97667.34;7388659;19;19976;-71
2022/12/12 02:10:15;;;;;;;;;;;;;;;-0.08;72.13;97661.81;7385466;19;19923;-71
2022/12/12 02:12:42;;;;;;;;;;;;;;;-0.25;72.43;97665.59;7386632;19;19918;-71
2022/12/12 02:15:08;;;;;;;;;;;;;;;-0.27;72.21;97670.06;7385167;19;19926;-71
2022/12/12 02:17:38;;;;;;;;;;;;;;;-0.42;73.19;97665.91;7385572;19;20336;-71
2022/12/12 02:20:14;;;;;;;;;;;;;;;-0.38;73.41;97672.56;7383136;19;20395;-71
2022/12/12 02:22:41;;;;;;;;;;;;;;;-0.50;73.76;97671.63;7387125;19;20339;-71
2022/12/12 02:25:10;;;;;;;;;;;;;;;-0.59;73.54;97675.69;7385691;19;19951;-71
2022/12/12 02:27:52;;;;;;;;;;;;;;;-0.70;74.37;97673.00;7386542;19;19922;-71
2022/12/12 02:30:21;;;;;;;;;;;;;;;-0.74;73.97;97679.31;7382037;19;20364;-71
2022/12/12 02:33:02;;;;;;;;;;;;;;;-0.82;74.40;97676.38;7387263;19;20381;-72
2022/12/12 02:35:47;;;;;;;;;;;;;;;-0.82;74.29;97676.38;7381820;19;20380;-72
2022/12/12 02:38:21;;;;;;;;;;;;;;;-0.81;73.76;97683.28;7387627;19;19951;-71
2022/12/12 02:41:06;;;;;;;;;;;;;;;-0.85;74.13;97676.59;7382909;19;19927;-71
2022/12/12 02:43:36;;;;;;;;;;;;;;;-0.82;74.05;97684.19;7385083;19;19996;-71
2022/12/12 02:46:04;;;;;;;;;;;;;;;-0.84;73.96;97686.91;7384183;19;20942;-72
2022/12/12 02:48:49;;;;;;;;;;;;;;;-0.88;74.01;97686.25;7386917;19;19943;-72
2022/12/12 02:51:15;;;;;;;;;;;;;;;-0.95;75.00;97681.56;7377239;19;19943;-72
2022/12/12 02:53:42;;;;;;;;;;;;;;;-0.83;74.52;97680.75;7380697;19;19939;-72
2022/12/12 02:56:28;;;;;;;;;;;;;;;-0.89;73.81;97686.38;7384993;19;19952;-72
2022/12/12 02:58:54;;;;;;;;;;;;;;;-1.06;74.50;97690.06;7386419;19;19931;-72
2022/12/12 03:01:39;;;;;;;;;;;;;;;-1.17;74.81;97690.75;7383863;19;20377;-71
2022/12/12 03:09:52;;;;;;;;;;;;;;;-1.16;74.73;97689.84;7382868;19;19918;-72
2022/12/12 03:12:38;;;;;;;;;;;;;;;-1.15;74.72;97690.66;7384480;19;19947;-71
2022/12/12 03:15:16;;;;;;;;;;;;;;;-1.11;74.49;97690.38;7384108;19;20466;-71
2022/12/12 03:18:01;;;;;;;;;;;;;;;-1.11;73.98;97692.13;7387270;19;19965;-71
2022/12/12 03:20:31;;;;;;;;;;;;;;;-1.18;74.49;97685.69;7384225;19;19923;-71
2022/12/12 03:23:02;;;;;;;;;;;;;;;-1.20;74.16;97685.78;7385468;19;19959;-72
2022/12/12 03:25:28;;;;;;;;;;;;;;;-1.14;73.93;97676.75;7383377;19;20228;-71
2022/12/12 03:28:03;;;;;;;;;;;;;;;-1.22;74.29;97686.78;7383214;19;19963;-71
2022/12/12 03:30:29;;;;;;;;;;;;;;;-1.29;74.43;97691.56;7380117;19;19923;-71
2022/12/12 03:32:59;;;;;;;;;;;;;;;-1.26;74.62;97687.91;7381976;19;20439;-71
2022/12/12 03:35:27;;;;;;;;;;;;;;;-1.27;74.62;97683.66;7384523;19;19935;-71
2022/12/12 03:37:57;;;;;;;;;;;;;;;-1.19;74.88;97681.41;7385170;19;19943;-71
2022/12/12 03:40:28;;;;;;;;;;;;;;;-1.20;74.85;97682.34;7382453;19;19919;-71
2022/12/12 03:42:59;;;;;;;;;;;;;;;-1.30;75.31;97683.88;7379112;19;19914;-71
2022/12/12 03:45:27;;;;;;;;;;;;;;;-1.21;75.01;97685.84;7383854;19;19947;-71
2022/12/12 03:47:55;;;;;;;;;;;;;;;-0.99;73.43;97686.13;7385581;19;19935;-72
2022/12/12 03:50:24;;;;;;;;;;;;;;;-0.84;72.25;97686.03;7382061;19;19947;-71
2022/12/12 03:52:53;;;;;;;;;;;;;;;-1.00;73.09;97691.41;7383244;19;19938;-71
2022/12/12 03:55:27;;;;;;;;;;;;;;;-1.01;72.98;97693.19;7383463;19;20327;-71
2022/12/12 03:57:58;;;;;;;;;;;;;;;-0.96;73.34;97688.53;7379497;19;19918;-71
2022/12/12 04:00:25;;;;;;;;;;;;;;;-0.84;73.28;97689.50;7375537;19;19951;-71
2022/12/12 04:02:51;;;;;;;;;;;;;;;-0.83;73.21;97690.31;7383591;19;19951;-71
2022/12/12 04:05:23;;;;;;;;;;;;;;;-1.18;74.37;97690.88;7385437;19;19919;-71
2022/12/12 04:08:10;;;;;;;;;;;;;;;-1.06;74.55;97700.44;7384251;19;19926;-71
2022/12/12 04:13:42;;;;;;;;;;;;;;;-1.04;75.00;97701.19;7379992;19;19922;-71
2022/12/12 04:16:12;;;;;;;;;;;;;;;-0.83;74.69;97703.31;7377983;19;19918;-71
2022/12/12 04:18:51;;;;;;;;;;;;;;;-0.78;74.22;97701.25;7381167;19;19931;-71
2022/12/12 04:24:21;;;;;;;;;;;;;;;-0.79;73.80;97705.59;7384824;19;19922;-71
2022/12/12 04:26:47;;;;;;;;;;;;;;;-0.74;73.77;97707.88;7384748;19;19948;-71
2022/12/12 04:29:17;;;;;;;;;;;;;;;-0.73;73.99;97704.38;7383458;19;19923;-71
2022/12/12 04:32:02;;;;;;;;;;;;;;;-0.68;74.43;97710.91;7377498;19;19948;-71
2022/12/12 04:34:40;;;;;;;;;;;;;;;-0.62;74.29;97708.84;7380638;19;19934;-71
2022/12/12 04:37:07;;;;;;;;;;;;;;;-0.40;73.51;97714.25;7381832;19;20187;-71
2022/12/12 04:39:33;;;;;;;;;;;;;;;-0.48;73.86;97712.16;7381067;19;19939;-71
2022/12/12 04:42:00;;;;;;;;;;;;;;;-0.53;73.79;97714.25;7380081;19;19919;-71
2022/12/12 04:44:26;;;;;;;;;;;;;;;-0.60;73.79;97717.38;7384227;19;19921;-71
2022/12/12 04:46:53;;;;;;;;;;;;;;;-0.33;73.59;97725.06;7377422;19;19923;-71
2022/12/12 04:49:23;;;;;;;;;;;;;;;-0.21;73.07;97721.66;7375267;19;19923;-71
2022/12/12 04:51:51;;;;;;;;;;;;;;;-0.22;72.32;97720.81;7376144;19;20266;-70
2022/12/12 04:54:23;;;;;;;;;;;;;;;-0.43;73.09;97726.63;7385774;19;19919;-71
2022/12/12 04:56:50;;;;;;;;;;;;;;;-0.43;73.58;97732.66;7385914;19;19947;-70
2022/12/12 04:59:17;;;;;;;;;;;;;;;-0.26;72.90;97727.16;7387159;19;19930;-71
2022/12/12 05:01:47;;;;;;;;;;;;;;;-0.26;73.00;97731.53;7389293;19;20605;-71
2022/12/12 05:04:21;;;;;;;;;;;;;;;-0.30;73.40;97728.28;7388975;19;19921;-71
2022/12/12 05:06:49;;;;;;;;;;;;;;;-0.43;73.72;97731.81;7384553;19;19934;-71
2022/12/12 05:09:16;;;;;;;;;;;;;;;-0.39;73.79;97728.09;7388078;19;20263;-71
2022/12/12 05:11:42;;;;;;;;;;;;;;;-0.20;73.17;97731.09;7387784;19;20342;-71
2022/12/12 05:14:09;;;;;;;;;;;;;;;-0.24;73.03;97735.69;7391023;19;19952;-68
2022/12/12 05:16:37;;;;;;;;;;;;;;;-0.13;72.63;97732.38;7387391;19;19947;-72
2022/12/12 05:19:04;;;;;;;;;;;;;;;-0.34;73.77;97739.84;7389075;19;19953;-71
2022/12/12 05:21:30;;;;;;;;;;;;;;;-0.46;74.01;97738.88;7384296;19;19921;-72
2022/12/12 05:23:57;;;;;;;;;;;;;;;-0.36;73.83;97738.28;7388032;19;19915;-71
2022/12/12 05:26:27;;;;;;;;;;;;;;;-0.36;73.77;97746.09;7391534;19;19918;-71
2022/12/12 05:28:54;;;;;;;;;;;;;;;-0.19;73.56;97743.16;7391620;19;19927;-72
2022/12/12 05:31:21;;;;;;;;;;;;;;;-0.13;72.85;97742.75;7387361;19;20398;-69
2022/12/12 05:33:47;;;;;;;;;;;;;;;-0.18;73.12;97744.84;7387346;19;19930;-70
2022/12/12 05:36:14;;;;;;;;;;;;;;;-0.11;73.15;97751.25;7388057;19;19919;-69
2022/12/12 05:38:41;;;;;;;;;;;;;;;-0.02;72.87;97742.84;7386071;19;20039;-71
2022/12/12 05:41:07;;;;;;;;;;;;;;;-0.17;73.28;97751.69;7383814;19;19919;-69
2022/12/12 05:43:34;;;;;;;;;;;;;;;-0.20;73.42;97749.31;7386358;19;19918;-70
2022/12/12 05:46:01;;;;;;;;;;;;;;;-0.10;72.89;97742.53;7384820;19;19968;-70
2022/12/12 05:48:31;;;;;;;;;;;;;;;-0.18;73.08;97750.03;7386812;19;20333;-70
2022/12/12 05:50:59;;;;;;;;;;;;;;;-0.29;73.48;97744.72;7381738;19;19934;-71
2022/12/12 05:53:25;;;;;;;;;;;;;;;-0.26;73.49;97753.16;7384303;19;19954;-71
2022/12/12 05:55:52;;;;;;;;;;;;;;;-0.23;73.49;97752.13;7383831;19;20301;-71
2022/12/12 05:58:18;;;;;;;;;;;;;;;-0.40;74.25;97758.44;7387620;19;19919;-71
2022/12/12 06:00:46;;;;;;;;;;;;;;;-0.32;73.88;97753.53;7386480;19;19927;-72
2022/12/12 06:03:13;;;;;;;;;;;;;;;-0.36;74.43;97759.06;7387774;19;20351;-72
2022/12/12 06:05:40;;;;;;;;;;;;;;;-0.17;73.73;97756.06;7386422;19;19919;-72
2022/12/12 06:08:06;;;;;;;;;;;;;;;-0.34;74.10;97770.19;7389803;19;19919;-70
2022/12/12 06:10:33;;;;;;;;;;;;;;;-0.19;72.91;97753.56;7384668;19;19998;-70
2022/12/12 06:13:00;;;;;;;;;;;;;;;-0.22;72.31;97754.59;7382600;19;20239;-70
2022/12/12 06:15:26;;;;;;;;;;;;;;;-0.28;72.47;97756.78;7383884;19;20021;-70
2022/12/12 06:17:53;;;;;;;;;;;;;;;-0.31;72.69;97757.00;7389914;19;19921;-70
2022/12/12 06:20:20;;;;;;;;;;;;;;;-0.37;72.98;97766.03;7388136;19;19929;-69
2022/12/12 06:22:47;;;;;;;;;;;;;;;-0.19;72.91;97758.75;7388382;19;19919;-70
2022/12/12 06:25:19;;;;;;;;;;;;;;;-0.23;72.61;97770.31;7385945;19;19919;-70
2022/12/12 06:27:46;;;;;;;;;;;;;;;-0.27;72.92;97766.25;7386336;19;19919;-70
2022/12/12 06:30:12;;;;;;;;;;;;;;;-0.33;73.39;97766.66;7382261;19;19923;-70
2022/12/12 06:32:39;;;;;;;;;;;;;;;-0.32;73.42;97774.34;7385938;19;21293;-70
2022/12/12 06:35:05;;;;;;;;;;;;;;;-0.29;73.21;97774.16;7383929;19;19925;-70
2022/12/12 06:37:32;;;;;;;;;;;;;;;-0.38;73.41;97768.75;7386047;19;19922;-70
2022/12/12 06:39:58;;;;;;;;;;;;;;;-0.29;73.38;97781.09;7384728;19;19918;-69
2022/12/12 06:42:25;;;;;;;;;;;;;;;-0.27;73.32;97781.84;7384893;19;19955;-70
2022/12/12 06:44:51;;;;;;;;;;;;;;;-0.34;73.67;97776.22;7384621;19;20698;-70
2022/12/12 06:47:18;;;;;;;;;;;;;;;-0.42;73.67;97777.66;7384229;19;19927;-70
2022/12/12 06:49:44;;;;;;;;;;;;;;;-0.40;73.58;97775.78;7387663;19;19923;-70
2022/12/12 06:52:11;;;;;;;;;;;;;;;-0.32;73.29;97776.94;7387116;19;19930;-70
2022/12/12 06:54:38;;;;;;;;;;;;;;;-0.40;73.48;97773.19;7389723;19;19919;-70
2022/12/12 06:57:04;;;;;;;;;;;;;;;-0.45;73.16;97778.69;7386472;19;19951;-70
2022/12/12 06:59:31;;;;;;;;;;;;;;;-0.38;73.10;97782.56;7387423;19;19934;-70
2022/12/12 07:01:58;;;;;;;;;;;;;;;-0.39;73.06;97788.69;7384426;19;21070;-70
2022/12/12 07:04:24;;;;;;;;;;;;;;;-0.48;73.00;97790.13;7385960;19;19919;-70
2022/12/12 07:06:51;;;;;;;;;;;;;;;-0.52;73.04;97783.47;7384866;19;20391;-70
2022/12/12 07:09:19;;;;;;;;;;;;;;;-0.46;73.36;97792.63;7386414;19;20340;-70
2022/12/12 07:11:45;;;;;;;;;;;;;;;-0.51;73.41;97798.13;7386334;19;19918;-70
2022/12/12 07:14:12;;;;;;;;;;;;;;;-0.48;73.05;97800.50;7387056;19;19947;-70
2022/12/12 07:16:39;;;;;;;;;;;;;;;-0.40;72.58;97799.19;7384799;19;19919;-70
2022/12/12 07:19:06;;;;;;;;;;;;;;;-0.56;73.47;97796.75;7384129;19;19919;-70
2022/12/12 07:21:32;;;;;;;;;;;;;;;-0.51;73.71;97797.28;7381455;19;19923;-70
2022/12/12 07:23:59;;;;;;;;;;;;;;;-0.51;73.63;97792.94;7388549;19;19922;-71
2022/12/12 07:26:25;;;;;;;;;;;;;;;-0.51;74.04;97797.28;7386826;19;19963;-70
2022/12/12 07:28:52;;;;;;;;;;;;;;;-0.52;74.52;97808.63;7387290;19;19951;-71
2022/12/12 07:31:20;;;;;;;;;;;;;;;-0.40;73.61;97806.97;7384791;19;19929;-70
2022/12/12 07:33:47;;;;;;;;;;;;;;;-0.47;72.71;97812.59;7386337;19;19982;-70
2022/12/12 07:36:13;;;;;;;;;;;;;;;-0.45;72.02;97808.13;7380317;19;19949;-70
2022/12/12 07:38:40;;;;;;;;;;;;;;;-0.53;72.36;97810.38;7386060;19;19975;-70
2022/12/12 07:41:11;;;;;;;;;;;;;;;-0.47;72.21;97811.75;7381627;19;20257;-69
2022/12/12 07:43:39;;;;;;;;;;;;;;;-0.51;71.82;97815.47;7386798;19;19947;-70
2022/12/12 07:46:10;;;;;;;;;;;;;;;-0.50;71.82;97814.53;7388027;19;19915;-70
2022/12/12 07:48:37;;;;;;;;;;;;;;;-0.54;72.29;97820.88;7385334;19;19923;-70
2022/12/12 07:51:03;;;;;;;;;;;;;;;-0.60;71.96;97821.28;7382060;19;19921;-70
2022/12/12 07:53:30;;;;;;;;;;;;;;;-0.46;72.27;97821.22;7381288;19;19925;-69
2022/12/12 07:55:57;;;;;;;;;;;;;;;-0.43;71.98;97826.22;7384798;19;19948;-70
2022/12/12 07:58:23;;;;;;;;;;;;;;;-0.37;71.78;97823.22;7384614;19;19923;-70
2022/12/12 08:00:50;;;;;;;;;;;;;;;-0.39;72.02;97835.47;7383430;19;19936;-69
2022/12/12 08:03:17;;;;;;;;;;;;;;;-0.27;71.52;97826.03;7387490;19;19928;-70
2022/12/12 08:05:43;;;;;;;;;;;;;;;-0.22;71.47;97826.56;7386150;19;19926;-70
2022/12/12 08:08:10;;;;;;;;;;;;;;;-0.37;71.91;97837.97;7383611;19;19922;-70
2022/12/12 08:10:37;;;;;;;;;;;;;;;-0.24;72.03;97833.63;7379772;19;19911;-70
2022/12/12 08:13:04;;;;;;;;;;;;;;;-0.23;71.70;97836.13;7386566;19;19943;-70
2022/12/12 08:15:30;;;;;;;;;;;;;;;-0.31;71.63;97830.59;7383722;19;20356;-70
2022/12/12 08:17:57;;;;;;;;;;;;;;;-0.30;72.04;97841.84;7385008;19;19931;-69
2022/12/12 08:20:23;;;;;;;;;;;;;;;-0.16;71.96;97840.91;7381609;19;19919;-70
2022/12/12 08:22:50;;;;;;;;;;;;;;;-0.14;71.04;97844.25;7386107;19;19926;-70
2022/12/12 08:25:16;;;;;;;;;;;;;;;-0.16;70.43;97849.53;7382725;19;19918;-69
2022/12/12 08:27:43;;;;;;;;;;;;;;;-0.22;69.54;97845.59;7382832;19;19949;-70
2022/12/12 08:30:10;;;;;;;;;;;;;;;-0.17;69.52;97845.28;7392801;19;19923;-70
2022/12/12 08:32:37;;;;;;;;;;;;;;;-0.16;69.77;97852.13;7392846;19;20350;-69
2022/12/12 08:35:04;;;;;;;;;;;;;;;-0.13;69.77;97862.38;7394563;19;20026;-70
2022/12/12 08:37:31;;;;;;;;;;;;;;;-0.07;69.32;97861.13;7389442;19;19919;-69
2022/12/12 08:39:57;;;;;;;;;;;;;;;0.11;69.18;97859.88;7392619;19;20021;-70
2022/12/12 08:42:24;;;;;;;;;;;;;;;0.03;69.69;97861.31;7387306;19;19923;-70
2022/12/12 08:44:50;;;;;;;;;;;;;;;-0.03;69.88;97868.63;7391019;19;19939;-70
2022/12/12 08:47:17;;;;;;;;;;;;;;;0.04;69.87;97865.59;7392152;19;20356;-70
2022/12/12 08:49:43;;;;;;;;;;;;;;;0.10;69.82;97868.59;7391376;19;19954;-70
2022/12/12 08:52:10;;;;;;;;;;;;;;;0.07;69.42;97871.41;7392524;19;20319;-70
2022/12/12 08:54:36;;;;;;;;;;;;;;;0.06;69.60;97869.75;7391729;19;19943;-70
2022/12/12 08:57:03;;;;;;;;;;;;;;;-0.11;69.31;97868.28;7389654;19;19930;-69
2022/12/12 08:59:29;;;;;;;;;;;;;;;0.01;70.14;97866.63;7388496;19;19955;-70
2022/12/12 09:01:56;;;;;;;;;;;;;;;0.00;70.27;97870.19;7386916;19;20331;-71
2022/12/12 09:04:23;;;;;;;;;;;;;;;0.03;69.90;97866.50;7393356;19;20343;-70
2022/12/12 09:06:49;;;;;;;;;;;;;;;0.08;70.10;97867.03;7391961;19;19918;-69
2022/12/12 09:09:16;;;;;;;;;;;;;;;0.22;70.03;97867.78;7392299;19;19923;-70
2022/12/12 09:11:43;;;;;;;;;;;;;;;0.21;69.93;97875.69;7390505;19;19947;-70
2022/12/12 09:14:09;;;;;;;;;;;;;;;0.38;69.74;97870.19;7386375;19;19935;-70
2022/12/12 09:16:36;;;;;;;;;;;;;;;0.44;68.83;97882.78;7383035;19;20210;-69
2022/12/12 09:19:02;;;;;;;;;;;;;;;0.48;69.42;97872.19;7391370;19;19922;-70
2022/12/12 09:21:29;;;;;;;;;;;;;;;0.39;69.74;97876.22;7387538;19;19918;-70
2022/12/12 09:23:57;;;;;;;;;;;;;;;0.50;69.26;97876.34;7390856;19;19934;-70
2022/12/12 09:26:23;;;;;;;;;;;;;;;0.44;68.87;97882.78;7391192;19;19923;-70
2022/12/12 09:28:50;;;;;;;;;;;;;;;0.62;67.93;97888.50;7392003;19;19943;-69
2022/12/12 09:31:17;;;;;;;;;;;;;;;0.52;68.46;97894.44;7386293;19;19925;-70
2022/12/12 09:33:43;;;;;;;;;;;;;;;0.60;68.51;97903.38;7385143;19;19918;-70
2022/12/12 09:36:13;;;;;;;;;;;;;;;0.63;67.99;97894.53;7389416;19;19931;-70
2022/12/12 09:38:40;;;;;;;;;;;;;;;0.58;67.74;97899.22;7392865;19;19955;-70
2022/12/12 09:41:09;;;;;;;;;;;;;;;0.38;67.96;97904.03;7389011;19;19918;-70
2022/12/12 09:43:38;;;;;;;;;;;;;;;0.64;67.88;97904.03;7390848;19;19919;-70
2022/12/12 09:46:06;;;;;;;;;;;;;;;0.59;67.28;97895.69;7390632;19;19939;-70
2022/12/12 09:48:32;;;;;;;;;;;;;;;0.49;67.66;97890.28;7387545;19;19930;-71
2022/12/12 09:50:59;;;;;;;;;;;;;;;0.40;68.08;97894.34;7383403;19;19935;-70
2022/12/12 09:53:26;;;;;;;;;;;;;;;0.26;69.11;97891.81;7391963;19;19922;-70
2022/12/12 09:55:58;;;;;;;;;;;;;;;0.19;69.23;97888.00;7389330;19;19919;-70
2022/12/12 09:58:27;;;;;;;;;;;;;;;0.36;69.02;97889.44;7388445;19;19915;-69
2022/12/12 10:01:00;;;;;;;;;;;;;;;0.26;68.99;97881.41;7388927;19;19948;-71
2022/12/12 10:03:29;;;;;;;;;;;;;;;0.48;68.80;97882.59;7392306;19;19939;-70
2022/12/12 10:06:05;;;;;;;;;;;;;;;0.53;68.72;97878.72;7384852;19;19918;-71
2022/12/12 10:09:21;;;;;;;;;;;;;;;0.63;68.56;97876.31;7386678;19;19967;-71
2022/12/12 10:11:53;;;;;;;;;;;;;;;0.73;67.52;97874.72;7388033;19;19971;-70
2022/12/12 10:14:39;;;;;;;;;;;;;;;0.78;67.83;97880.47;7387513;19;19946;-71
2022/12/12 10:17:07;;;;;;;;;;;;;;;0.94;67.17;97874.19;7383792;19;19918;-70
2022/12/12 10:19:35;;;;;;;;;;;;;;;0.91;67.25;97864.81;7387180;19;19953;-69
2022/12/12 10:22:03;;;;;;;;;;;;;;;0.92;66.58;97863.03;7384621;19;19915;-70
2022/12/12 10:24:38;;;;;;;;;;;;;;;0.93;67.18;97867.31;7386176;19;20368;-70
2022/12/12 10:27:08;;;;;;;;;;;;;;;1.05;66.51;97866.44;7385624;19;19919;-70
2022/12/12 10:29:35;;;;;;;;;;;;;;;1.09;66.21;97866.13;7386596;19;19948;-70
2022/12/12 10:32:06;;;;;;;;;;;;;;;1.06;66.53;97863.72;7387067;19;19923;-70
2022/12/12 10:34:46;;;;;;;;;;;;;;;1.15;66.61;97862.25;7385429;19;19918;-70
2022/12/12 10:37:13;;;;;;;;;;;;;;;1.22;66.41;97862.66;7384926;19;19918;-70
2022/12/12 10:39:49;;;;;;;;;;;;;;;1.17;67.09;97860.38;7384269;19;19918;-69
2022/12/12 10:42:25;;;;;;;;;;;;;;;1.34;67.07;97853.09;7386168;19;19919;-69
2022/12/12 10:45:04;;;;;;;;;;;;;;;1.41;65.80;97849.13;7389828;19;19943;-69
2022/12/12 10:47:30;;;;;;;;;;;;;;;1.22;65.55;97858.25;7388158;19;19922;-70
2022/12/12 10:49:57;;;;;;;;;;;;;;;1.17;65.82;97855.16;7387919;19;19942;-69
2022/12/12 10:52:23;;;;;;;;;;;;;;;1.21;65.99;97853.16;7384678;19;19923;-70
2022/12/12 10:54:51;;;;;;;;;;;;;;;1.45;65.61;97847.94;7387469;19;19926;-69
2022/12/12 10:57:19;;;;;;;;;;;;;;;1.61;65.60;97855.50;7382913;19;19923;-69
2022/12/12 10:59:50;;;;;;;;;;;;;;;1.57;64.41;97857.47;7387524;19;19922;-70
2022/12/12 11:02:36;;;;;;;;;;;;;;;1.63;63.79;97849.19;7388516;19;19943;-70
2022/12/12 11:05:07;;;;;;;;;;;;;;;1.54;64.29;97853.31;7389982;19;19937;-68
2022/12/12 11:07:38;;;;;;;;;;;;;;;1.56;63.85;97853.22;7387258;19;20032;-68
2022/12/12 11:10:25;;;;;;;;;;;;;;;1.55;64.21;97854.16;7386037;19;20271;-69
2022/12/12 11:12:59;;;;;;;;;;;;;;;1.37;64.21;97852.88;7384521;19;19922;-69
2022/12/12 11:15:27;;;;;;;;;;;;;;;1.53;64.84;97858.66;7383609;19;20328;-68
2022/12/12 11:17:56;;;;;;;;;;;;;;;1.61;63.95;97853.72;7386504;19;19919;-69
2022/12/12 11:20:31;;;;;;;;;;;;;;;1.64;64.36;97863.09;7386242;19;19934;-69
2022/12/12 11:22:57;;;;;;;;;;;;;;;1.68;63.14;97846.25;7387087;19;20037;-69
2022/12/12 11:25:30;;;;;;;;;;;;;;;1.57;63.42;97851.44;7385502;19;19940;-69
2022/12/12 11:28:00;;;;;;;;;;;;;;;1.31;63.95;97846.34;7385638;19;19922;-68
2022/12/12 11:30:33;;;;;;;;;;;;;;;1.51;63.65;97842.28;7378770;19;19966;-69
2022/12/12 11:33:00;;;;;;;;;;;;;;;1.60;63.36;97841.59;7386142;19;19936;-68
2022/12/12 11:35:28;;;;;;;;;;;;;;;1.49;63.01;97841.56;7387087;19;19930;-68
2022/12/12 11:37:56;;;;;;;;;;;;;;;1.42;63.60;97833.38;7386150;19;19962;-68
2022/12/12 11:40:24;;;;;;;;;;;;;;;1.62;64.13;97841.50;7384827;19;19923;-69
2022/12/12 11:42:50;;;;;;;;;;;;;;;1.66;63.53;97841.19;7386027;19;19943;-68
2022/12/12 11:45:17;;;;;;;;;;;;;;;1.68;62.07;97843.66;7384683;19;19935;-68
2022/12/12 11:47:44;;;;;;;;;;;;;;;1.71;61.47;97833.84;7383257;19;19927;-68
2022/12/12 11:50:36;;;;;;;;;;;;;;;1.57;62.29;97841.84;7385558;19;20026;-68
2022/12/12 11:53:04;;;;;;;;;;;;;;;1.65;62.37;97842.09;7387707;19;19951;-68
2022/12/12 11:55:30;;;;;;;;;;;;;;;1.71;62.79;97833.00;7384505;19;19935;-68
2022/12/12 11:57:56;;;;;;;;;;;;;;;1.77;62.63;97834.34;7385030;19;20399;-68
2022/12/12 12:00:45;;;;;;;;;;;;;;;1.71;61.19;97831.25;7385014;19;19947;-68
2022/12/12 12:03:30;;;;;;;;;;;;;;;1.64;61.41;97832.63;7385758;19;19990;-68
2022/12/12 12:06:16;;;;;;;;;;;;;;;1.77;61.45;97822.13;7391853;19;20256;-68
2022/12/12 12:08:51;;;;;;;;;;;;;;;1.34;63.36;97820.06;7394948;19;19915;-68
2022/12/12 12:11:24;;;;;;;;;;;;;;;1.43;63.95;97821.19;7389592;19;20258;-68
2022/12/12 12:13:51;;;;;;;;;;;;;;;1.61;62.26;97826.81;7389197;19;19926;-68
2022/12/12 12:16:17;;;;;;;;;;;;;;;1.56;62.32;97823.72;7393373;19;19923;-68
2022/12/12 12:18:48;;;;;;;;;;;;;;;1.71;64.04;97826.03;7389699;19;19922;-68
2022/12/12 12:21:14;;;;;;;;;;;;;;;1.66;63.80;97825.53;7382671;19;20218;-68
2022/12/12 12:23:56;;;;;;;;;;;;;;;1.62;64.00;97818.88;7393500;19;20249;-69
2022/12/12 12:26:41;;;;;;;;;;;;;;;1.73;64.14;97824.09;7393183;19;19918;-69
2022/12/12 12:29:46;;;;;;;;;;;;;;;1.74;63.70;97819.75;7393007;19;19943;-68
2022/12/12 12:32:22;;;;;;;;;;;;;;;1.72;64.17;97811.22;7387889;19;19927;-68
2022/12/12 12:34:51;;;;;;;;;;;;;;;1.48;63.73;97817.28;7389077;19;20018;-69
2022/12/12 12:37:17;;;;;;;;;;;;;;;1.58;62.94;97817.44;7383241;19;19971;-68
2022/12/12 12:39:51;;;;;;;;;;;;;;;1.78;62.67;97818.56;7390577;19;20469;-68
2022/12/12 12:42:34;;;;;;;;;;;;;;;1.40;62.84;97818.78;7392089;19;20241;-68
2022/12/12 12:45:19;;;;;;;;;;;;;;;1.54;63.82;97800.34;7391548;19;19918;-69
2022/12/12 12:47:48;;;;;;;;;;;;;;;1.45;64.06;97807.09;7393639;19;19927;-69
2022/12/12 12:50:16;;;;;;;;;;;;;;;1.45;64.30;97801.88;7389469;19;19978;-69
2022/12/12 12:52:48;;;;;;;;;;;;;;;1.49;64.86;97805.06;7388905;19;19918;-68
2022/12/12 12:55:15;;;;;;;;;;;;;;;1.37;63.93;97811.19;7389377;19;20316;-69
2022/12/12 12:57:42;;;;;;;;;;;;;;;1.35;63.78;97803.50;7389235;19;19930;-69
2022/12/12 13:00:16;;;;;;;;;;;;;;;1.56;64.57;97801.09;7385836;19;20389;-69
2022/12/12 13:02:55;;;;;;;;;;;;;;;1.69;63.85;97811.44;7394265;19;19923;-68
2022/12/12 13:05:40;;;;;;;;;;;;;;;1.60;63.48;97799.91;7391014;19;19923;-67
2022/12/12 13:08:14;;;;;;;;;;;;;;;1.54;63.02;97798.56;7391936;19;19957;-69
2022/12/12 13:10:43;;;;;;;;;;;;;;;1.56;63.26;97801.09;7382883;19;20262;-69
2022/12/12 13:13:09;;;;;;;;;;;;;;;1.62;63.43;97797.19;7389751;19;19922;-68
2022/12/12 13:15:40;;;;;;;;;;;;;;;1.52;65.01;97799.63;7388574;19;19932;-68